Time,TemperatureF,DewpointF,PressureIn,WindDirection,WindDirectionDegrees,WindSpeedMPH,WindSpeedGustMPH,Humidity,HourlyPrecipIn,Conditions,Clouds,dailyrainin,SoftwareType,DateUTC
2013-01-12 00:01:00,42.6,42.1,30.08,WSW,245,3.0,3.0,98,0.00,,,0.00,Wunderground v.1.15,2013-01-12 05:01:00,
2013-01-12 00:06:00,42.9,42.4,30.09,West,271,2.0,4.0,98,0.00,,,0.00,Wunderground v.1.15,2013-01-12 05:06:00,
2013-01-12 00:11:00,43.0,42.5,30.08,West,273,1.0,2.0,98,0.00,,,0.00,Wunderground v.1.15,2013-01-12 05:11:00,
2013-01-12 00:16:00,42.9,42.4,30.09,West,280,3.0,3.0,98,0.00,,,0.00,Wunderground v.1.15,2013-01-12 05:16:00,
2013-01-12 00:21:00,42.9,42.4,30.09,West,275,4.0,6.0,98,0.00,,,0.00,Wunderground v.1.15,2013-01-12 05:21:00,
2013-01-12 00:26:00,42.9,42.4,30.09,West,269,3.0,6.0,98,0.00,,,0.00,Wunderground v.1.15,2013-01-12 05:26:00,
2013-01-12 00:31:00,42.8,42.3,30.09,West,280,3.0,3.0,98,0.00,,,0.00,Wunderground v.1.15,2013-01-12 05:31:00,
2013-01-12 00:36:00,42.7,42.2,30.09,West,270,3.0,3.0,98,0.00,,,0.00,Wunderground v.1.15,2013-01-12 05:36:00,
2013-01-12 00:41:00,42.7,42.2,30.09,West,274,3.0,3.0,98,0.00,,,0.00,Wunderground v.1.15,2013-01-12 05:41:00,
2013-01-12 00:46:00,42.7,42.2,30.09,West,267,3.0,3.0,98,0.00,,,0.00,Wunderground v.1.15,2013-01-12 05:46:00,
2013-01-12 00:51:00,42.7,42.2,30.09,West,278,4.0,4.0,98,0.00,,,0.00,Wunderground v.1.15,2013-01-12 05:51:00,
2013-01-12 00:56:00,42.9,42.4,30.09,WNW,283,6.0,6.0,98,0.00,,,0.00,Wunderground v.1.15,2013-01-12 05:56:00,
2013-01-12 01:01:00,43.1,42.6,30.09,WNW,285,4.0,6.0,98,0.00,,,0.00,Wunderground v.1.15,2013-01-12 06:01:00,
2013-01-12 01:06:00,43.0,42.5,30.09,West,278,4.0,6.0,98,0.00,,,0.00,Wunderground v.1.15,2013-01-12 06:06:00,
2013-01-12 01:11:00,43.0,42.5,30.09,WNW,283,3.0,4.0,98,0.00,,,0.00,Wunderground v.1.15,2013-01-12 06:11:00,
2013-01-12 01:16:00,43.0,42.5,30.08,WNW,283,3.0,4.0,98,0.00,,,0.00,Wunderground v.1.15,2013-01-12 06:16:00,
2013-01-12 01:21:00,42.9,42.4,30.08,West,267,4.0,5.0,98,0.00,,,0.00,Wunderground v.1.15,2013-01-12 06:21:00,
2013-01-12 01:26:00,43.0,42.5,30.09,West,269,3.0,5.0,98,0.00,,,0.00,Wunderground v.1.15,2013-01-12 06:26:00,
2013-01-12 01:31:00,43.0,42.5,30.09,West,277,3.0,4.0,98,0.00,,,0.00,Wunderground v.1.15,2013-01-12 06:31:00,
2013-01-12 01:36:00,42.9,42.4,30.09,West,269,1.0,4.0,98,0.00,,,0.00,Wunderground v.1.15,2013-01-12 06:36:00,
2013-01-12 01:41:00,42.8,42.3,30.09,WNW,284,1.0,2.0,98,0.00,,,0.00,Wunderground v.1.15,2013-01-12 06:41:00,
2013-01-12 01:46:00,42.9,42.4,30.10,WNW,285,2.0,2.0,98,0.00,,,0.00,Wunderground v.1.15,2013-01-12 06:46:00,
2013-01-12 01:51:00,43.0,42.5,30.10,WNW,288,2.0,2.0,98,0.00,,,0.00,Wunderground v.1.15,2013-01-12 06:51:00,
2013-01-12 01:56:00,42.9,42.4,30.10,NW,316,1.0,2.0,98,0.00,,,0.00,Wunderground v.1.15,2013-01-12 06:56:00,
2013-01-12 02:01:00,42.9,42.4,30.11,WNW,296,3.0,3.0,98,0.00,,,0.00,Wunderground v.1.15,2013-01-12 07:01:00,
2013-01-12 02:06:00,42.9,42.4,30.10,WNW,295,1.0,4.0,98,0.00,,,0.00,Wunderground v.1.15,2013-01-12 07:06:00,
2013-01-12 02:11:00,42.8,42.3,30.10,NW,314,2.0,2.0,98,0.00,,,0.00,Wunderground v.1.15,2013-01-12 07:11:00,
2013-01-12 02:16:00,42.9,42.4,30.11,NW,314,1.0,3.0,98,0.00,,,0.00,Wunderground v.1.15,2013-01-12 07:16:00,
2013-01-12 02:21:00,42.9,42.4,30.11,WNW,290,3.0,3.0,98,0.00,,,0.00,Wunderground v.1.15,2013-01-12 07:21:00,
2013-01-12 02:26:00,42.8,42.3,30.11,WNW,292,2.0,3.0,98,0.00,,,0.00,Wunderground v.1.15,2013-01-12 07:26:00,
2013-01-12 02:31:00,42.8,42.3,30.11,WNW,293,3.0,3.0,98,0.00,,,0.00,Wunderground v.1.15,2013-01-12 07:31:00,
2013-01-12 02:36:00,42.8,42.3,30.11,WNW,293,2.0,3.0,98,0.00,,,0.00,Wunderground v.1.15,2013-01-12 07:36:00,
2013-01-12 02:41:00,42.7,42.2,30.11,WNW,293,1.0,2.0,98,0.00,,,0.00,Wunderground v.1.15,2013-01-12 07:41:00,
2013-01-12 02:46:00,42.6,42.1,30.11,NW,315,3.0,3.0,98,0.00,,,0.00,Wunderground v.1.15,2013-01-12 07:46:00,
2013-01-12 02:51:00,42.6,42.1,30.11,NNW,332,3.0,3.0,98,0.00,,,0.00,Wunderground v.1.15,2013-01-12 07:51:00,
2013-01-12 02:56:00,42.8,42.3,30.12,NW,326,4.0,4.0,98,0.00,,,0.00,Wunderground v.1.15,2013-01-12 07:56:00,
2013-01-12 03:01:00,42.9,42.4,30.12,NNW,328,3.0,5.0,98,0.00,,,0.00,Wunderground v.1.15,2013-01-12 08:01:00,
2013-01-12 03:06:00,43.0,42.5,30.11,NNW,330,4.0,6.0,98,0.00,,,0.00,Wunderground v.1.15,2013-01-12 08:06:00,
2013-01-12 03:11:00,42.9,42.4,30.11,NW,325,3.0,4.0,98,0.00,,,0.00,Wunderground v.1.15,2013-01-12 08:11:00,
2013-01-12 03:16:00,42.8,42.3,30.11,NNW,340,3.0,4.0,98,0.00,,,0.00,Wunderground v.1.15,2013-01-12 08:16:00,
2013-01-12 03:21:00,42.9,42.4,30.11,NNW,332,3.0,4.0,98,0.00,,,0.00,Wunderground v.1.15,2013-01-12 08:21:00,
2013-01-12 03:26:00,42.9,42.4,30.11,NNW,328,3.0,5.0,98,0.00,,,0.00,Wunderground v.1.15,2013-01-12 08:26:00,
2013-01-12 03:31:00,43.0,42.5,30.11,NNW,342,4.0,6.0,98,0.00,,,0.00,Wunderground v.1.15,2013-01-12 08:31:00,
2013-01-12 03:36:00,42.9,42.4,30.11,NW,318,4.0,6.0,98,0.00,,,0.00,Wunderground v.1.15,2013-01-12 08:36:00,
2013-01-12 03:41:00,42.9,42.4,30.11,NW,315,3.0,4.0,98,0.00,,,0.00,Wunderground v.1.15,2013-01-12 08:41:00,
2013-01-12 03:46:00,42.8,42.3,30.12,WNW,298,3.0,5.0,98,0.00,,,0.00,Wunderground v.1.15,2013-01-12 08:46:00,
2013-01-12 03:51:00,42.6,42.1,30.11,NW,304,2.0,3.0,98,0.00,,,0.00,Wunderground v.1.15,2013-01-12 08:51:00,
2013-01-12 03:56:00,42.5,42.0,30.11,NW,326,3.0,3.0,98,0.00,,,0.00,Wunderground v.1.15,2013-01-12 08:56:00,
2013-01-12 04:01:00,42.5,42.0,30.11,NW,323,2.0,3.0,98,0.00,,,0.00,Wunderground v.1.15,2013-01-12 09:01:00,
2013-01-12 04:06:00,42.6,42.1,30.11,NNW,340,2.0,3.0,98,0.00,,,0.00,Wunderground v.1.15,2013-01-12 09:06:00,
2013-01-12 04:11:00,42.6,42.1,30.11,NNW,333,2.0,3.0,98,0.00,,,0.00,Wunderground v.1.15,2013-01-12 09:11:00,
2013-01-12 04:16:00,42.5,42.0,30.10,NNW,335,2.0,3.0,98,0.00,,,0.00,Wunderground v.1.15,2013-01-12 09:16:00,
2013-01-12 04:21:00,42.5,42.0,30.10,NW,317,2.0,2.0,98,0.00,,,0.00,Wunderground v.1.15,2013-01-12 09:21:00,
2013-01-12 04:26:00,42.5,42.0,30.10,NNW,332,1.0,2.0,98,0.00,,,0.00,Wunderground v.1.15,2013-01-12 09:26:00,
2013-01-12 08:16:00,42.0,41.7,30.16,West,277,0.0,2.0,99,0.00,,,0.00,Wunderground v.1.15,2013-01-12 13:16:00,
2013-01-12 08:21:00,42.1,41.8,30.16,West,277,0.0,2.0,99,0.00,,,0.00,Wunderground v.1.15,2013-01-12 13:21:00,
2013-01-12 08:26:00,42.2,41.9,30.16,ENE,78,0.0,0.0,99,0.00,,,0.00,Wunderground v.1.15,2013-01-12 13:26:00,
2013-01-12 08:31:00,42.4,42.1,30.16,ENE,63,0.0,0.0,99,0.00,,,0.00,Wunderground v.1.15,2013-01-12 13:31:00,
2013-01-12 08:37:00,42.6,42.3,30.16,NE,46,2.0,2.0,99,0.00,,,0.00,Wunderground v.1.15,2013-01-12 13:37:00,
2013-01-12 08:42:00,42.8,42.5,30.16,NE,49,1.0,2.0,99,0.00,,,0.00,Wunderground v.1.15,2013-01-12 13:42:00,
2013-01-12 08:48:00,43.0,42.7,30.16,NNE,13,1.0,1.0,99,0.00,,,0.00,Wunderground v.1.15,2013-01-12 13:48:00,
2013-01-12 08:53:00,43.1,42.8,30.16,NW,324,2.0,3.0,99,0.00,,,0.00,Wunderground v.1.15,2013-01-12 13:53:00,
2013-01-12 08:59:00,43.1,42.8,30.16,WNW,290,4.0,4.0,99,0.00,,,0.00,Wunderground v.1.15,2013-01-12 13:59:00,
2013-01-12 09:04:00,43.1,42.8,30.16,WNW,284,1.0,3.0,99,0.00,,,0.00,Wunderground v.1.15,2013-01-12 14:04:00,
2013-01-12 09:10:00,43.0,42.7,30.16,WNW,284,3.0,3.0,99,0.00,,,0.00,Wunderground v.1.15,2013-01-12 14:10:00,
2013-01-12 09:16:00,42.9,42.6,30.16,WNW,284,2.0,3.0,99,0.00,,,0.00,Wunderground v.1.15,2013-01-12 14:16:00,
2013-01-12 09:21:00,42.8,42.5,30.16,WNW,284,1.0,2.0,99,0.00,,,0.00,Wunderground v.1.15,2013-01-12 14:21:00,
2013-01-12 09:26:00,42.8,42.3,30.16,WNW,283,1.0,2.0,98,0.00,,,0.00,Wunderground v.1.15,2013-01-12 14:26:00,
2013-01-12 09:32:00,42.9,42.4,30.16,WNW,284,1.0,1.0,98,0.00,,,0.00,Wunderground v.1.15,2013-01-12 14:32:00,
2013-01-12 09:38:00,42.9,42.6,30.16,WNW,285,1.0,1.0,99,0.00,,,0.00,Wunderground v.1.15,2013-01-12 14:38:00,
2013-01-12 09:43:00,43.0,42.5,30.16,NW,312,1.0,1.0,98,0.00,,,0.00,Wunderground v.1.15,2013-01-12 14:43:00,
2013-01-12 09:49:00,43.2,42.9,30.15,NNW,333,2.0,4.0,99,0.00,,,0.00,Wunderground v.1.15,2013-01-12 14:49:00,
2013-01-12 09:54:00,43.3,43.0,30.15,NNW,337,3.0,3.0,99,0.00,,,0.00,Wunderground v.1.15,2013-01-12 14:54:00,
2013-01-12 09:59:00,43.4,43.1,30.15,NW,318,2.0,4.0,99,0.00,,,0.00,Wunderground v.1.15,2013-01-12 14:59:00,
2013-01-12 10:05:00,43.4,42.9,30.15,WNW,298,3.0,4.0,98,0.00,,,0.00,Wunderground v.1.15,2013-01-12 15:05:00,
2013-01-12 10:10:00,43.3,42.8,30.16,WNW,300,4.0,4.0,98,0.00,,,0.00,Wunderground v.1.15,2013-01-12 15:10:00,
2013-01-12 10:16:00,43.3,42.8,30.16,NW,304,3.0,4.0,98,0.00,,,0.00,Wunderground v.1.15,2013-01-12 15:16:00,
2013-01-12 10:21:00,43.4,42.9,30.15,NNW,328,2.0,3.0,98,0.00,,,0.00,Wunderground v.1.15,2013-01-12 15:21:00,
2013-01-12 10:27:00,43.5,43.0,30.15,NW,304,4.0,4.0,98,0.00,,,0.00,Wunderground v.1.15,2013-01-12 15:27:00,
2013-01-12 10:32:00,43.5,43.0,30.15,NW,320,5.0,5.0,98,0.00,,,0.00,Wunderground v.1.15,2013-01-12 15:32:00,
2013-01-12 10:38:00,43.6,43.1,30.15,NW,312,2.0,5.0,98,0.00,,,0.00,Wunderground v.1.15,2013-01-12 15:38:00,
2013-01-12 10:43:00,43.9,43.4,30.15,WNW,293,2.0,3.0,98,0.00,,,0.00,Wunderground v.1.15,2013-01-12 15:43:00,
2013-01-12 10:49:00,43.9,43.4,30.16,WNW,294,10.0,10.0,98,0.00,,,0.00,Wunderground v.1.15,2013-01-12 15:49:00,
2013-01-12 10:54:00,43.6,42.8,30.16,WNW,291,4.0,6.0,97,0.00,,,0.00,Wunderground v.1.15,2013-01-12 15:54:00,
2013-01-12 11:00:00,43.7,42.9,30.16,West,280,4.0,6.0,97,0.00,,,0.00,Wunderground v.1.15,2013-01-12 16:00:00,
2013-01-12 11:05:00,43.5,42.7,30.15,West,268,4.0,5.0,97,0.00,,,0.00,Wunderground v.1.15,2013-01-12 16:05:00,
2013-01-12 11:11:00,43.3,42.5,30.14,WSW,253,2.0,3.0,97,0.00,,,0.00,Wunderground v.1.15,2013-01-12 16:11:00,
2013-01-12 11:16:00,43.3,42.5,30.14,WNW,283,3.0,3.0,97,0.00,,,0.00,Wunderground v.1.15,2013-01-12 16:16:00,
2013-01-12 11:21:00,43.3,42.5,30.14,WNW,297,2.0,4.0,97,0.00,,,0.00,Wunderground v.1.15,2013-01-12 16:21:00,
2013-01-12 11:27:00,43.4,42.6,30.15,NW,309,2.0,5.0,97,0.00,,,0.00,Wunderground v.1.15,2013-01-12 16:27:00,
2013-01-12 11:32:00,43.3,42.5,30.15,WNW,296,4.0,4.0,97,0.00,,,0.00,Wunderground v.1.15,2013-01-12 16:32:00,
2013-01-12 11:38:00,43.4,42.6,30.14,WNW,295,3.0,4.0,97,0.00,,,0.00,Wunderground v.1.15,2013-01-12 16:38:00,
2013-01-12 11:43:00,43.5,42.7,30.14,WNW,294,2.0,3.0,97,0.00,,,0.00,Wunderground v.1.15,2013-01-12 16:43:00,
2013-01-12 11:49:00,43.7,42.9,30.15,WNW,285,3.0,3.0,97,0.00,,,0.00,Wunderground v.1.15,2013-01-12 16:49:00,
2013-01-12 11:54:00,43.9,43.1,30.14,WSW,255,4.0,4.0,97,0.00,,,0.00,Wunderground v.1.15,2013-01-12 16:54:00,
2013-01-12 12:00:00,43.7,42.6,30.14,West,259,3.0,3.0,96,0.00,,,0.00,Wunderground v.1.15,2013-01-12 17:00:00,
2013-01-12 12:05:00,43.7,42.6,30.14,WSW,245,2.0,4.0,96,0.00,,,0.00,Wunderground v.1.15,2013-01-12 17:05:00,
2013-01-12 12:10:00,43.8,42.7,30.14,WSW,253,1.0,2.0,96,0.00,,,0.00,Wunderground v.1.15,2013-01-12 17:10:00,
2013-01-12 12:16:00,43.9,43.1,30.14,WSW,255,0.0,2.0,97,0.00,,,0.00,Wunderground v.1.15,2013-01-12 17:16:00,
2013-01-12 12:21:00,44.1,43.0,30.14,WSW,245,1.0,1.0,96,0.00,,,0.00,Wunderground v.1.15,2013-01-12 17:21:00,
2013-01-12 12:28:00,44.4,43.6,30.14,SSW,212,1.0,1.0,97,0.00,,,0.00,Wunderground v.1.15,2013-01-12 17:28:00,
2013-01-12 12:33:00,44.7,43.9,30.14,SSW,205,2.0,2.0,97,0.00,,,0.00,Wunderground v.1.15,2013-01-12 17:33:00,
2013-01-12 12:38:00,44.7,43.6,30.14,SW,217,0.0,2.0,96,0.00,,,0.00,Wunderground v.1.15,2013-01-12 17:38:00,
2013-01-12 12:44:00,44.7,43.6,30.14,WSW,248,1.0,1.0,96,0.00,,,0.00,Wunderground v.1.15,2013-01-12 17:44:00,
2013-01-12 12:49:00,44.9,43.8,30.14,SSW,205,0.0,1.0,96,0.00,,,0.00,Wunderground v.1.15,2013-01-12 17:49:00,
2013-01-12 12:55:00,45.0,43.9,30.13,SSW,212,2.0,2.0,96,0.00,,,0.00,Wunderground v.1.15,2013-01-12 17:55:00,
2013-01-12 13:00:00,44.9,43.8,30.13,SSW,195,2.0,2.0,96,0.00,,,0.00,Wunderground v.1.15,2013-01-12 18:00:00,
2013-01-12 13:05:00,44.9,43.8,30.13,SSW,207,3.0,3.0,96,0.00,,,0.00,Wunderground v.1.15,2013-01-12 18:05:00,
2013-01-12 13:11:00,44.8,43.7,30.13,SW,232,2.0,2.0,96,0.00,,,0.00,Wunderground v.1.15,2013-01-12 18:11:00,
2013-01-12 13:16:00,44.7,43.6,30.13,SSW,208,2.0,2.0,96,0.00,,,0.00,Wunderground v.1.15,2013-01-12 18:16:00,
2013-01-12 13:22:00,44.7,43.6,30.13,SSW,212,1.0,2.0,96,0.00,,,0.00,Wunderground v.1.15,2013-01-12 18:22:00,
2013-01-12 13:27:00,44.7,43.6,30.13,SSW,212,2.0,3.0,96,0.00,,,0.00,Wunderground v.1.15,2013-01-12 18:27:00,
2013-01-12 13:33:00,44.8,43.7,30.13,SSW,194,2.0,2.0,96,0.00,,,0.00,Wunderground v.1.15,2013-01-12 18:33:00,
2013-01-12 13:38:00,44.9,43.8,30.13,SW,222,2.0,3.0,96,0.00,,,0.00,Wunderground v.1.15,2013-01-12 18:38:00,
2013-01-12 13:44:00,44.9,43.8,30.13,WSW,245,1.0,2.0,96,0.00,,,0.00,Wunderground v.1.15,2013-01-12 18:44:00,
2013-01-12 13:49:00,45.0,43.9,30.13,WSW,248,2.0,2.0,96,0.00,,,0.00,Wunderground v.1.15,2013-01-12 18:49:00,
2013-01-12 13:55:00,45.2,44.1,30.13,SSW,205,1.0,2.0,96,0.00,,,0.00,Wunderground v.1.15,2013-01-12 18:55:00,
2013-01-12 14:00:00,45.6,44.5,30.12,SSW,208,2.0,2.0,96,0.00,,,0.00,Wunderground v.1.15,2013-01-12 19:00:00,
2013-01-12 14:06:00,45.5,44.2,30.12,SSW,211,3.0,3.0,95,0.00,,,0.00,Wunderground v.1.15,2013-01-12 19:06:00,
2013-01-12 14:11:00,45.6,44.3,30.12,SSW,211,3.0,3.0,95,0.00,,,0.00,Wunderground v.1.15,2013-01-12 19:11:00,
2013-01-12 14:16:00,45.8,44.4,30.12,SSW,205,2.0,3.0,95,0.00,,,0.00,Wunderground v.1.15,2013-01-12 19:16:00,
2013-01-12 14:22:00,46.2,44.8,30.12,SSW,208,2.0,2.0,95,0.00,,,0.00,Wunderground v.1.15,2013-01-12 19:22:00,
2013-01-12 14:27:00,46.3,44.7,30.12,SW,222,3.0,3.0,94,0.00,,,0.00,Wunderground v.1.15,2013-01-12 19:27:00,
2013-01-12 14:33:00,46.3,44.7,30.12,SSW,203,2.0,3.0,94,0.00,,,0.00,Wunderground v.1.15,2013-01-12 19:33:00,
2013-01-12 14:38:00,46.5,44.9,30.11,SSW,198,2.0,3.0,94,0.00,,,0.00,Wunderground v.1.15,2013-01-12 19:38:00,
2013-01-12 14:44:00,46.8,45.2,30.11,SSW,197,3.0,3.0,94,0.00,,,0.00,Wunderground v.1.15,2013-01-12 19:44:00,
2013-01-12 14:49:00,46.7,44.5,30.12,SW,226,5.0,5.0,92,0.00,,,0.00,Wunderground v.1.15,2013-01-12 19:49:00,
2013-01-12 14:55:00,46.3,44.4,30.12,SSW,208,3.0,4.0,93,0.00,,,0.00,Wunderground v.1.15,2013-01-12 19:55:00,
2013-01-12 15:00:00,46.1,44.2,30.12,WSW,245,3.0,4.0,93,0.00,,,0.00,Wunderground v.1.15,2013-01-12 20:00:00,
2013-01-12 15:06:00,46.0,44.1,30.12,SSE,158,1.0,4.0,93,0.00,,,0.00,Wunderground v.1.15,2013-01-12 20:06:00,
2013-01-12 15:11:00,46.2,44.6,30.12,South,187,3.0,3.0,94,0.00,,,0.00,Wunderground v.1.15,2013-01-12 20:11:00,
2013-01-12 15:17:00,46.1,44.5,30.12,South,186,3.0,3.0,94,0.00,,,0.00,Wunderground v.1.15,2013-01-12 20:17:00,
2013-01-12 15:23:00,46.7,45.1,30.11,SE,146,0.0,3.0,94,0.00,,,0.00,Wunderground v.1.15,2013-01-12 20:23:00,
2013-01-12 15:29:00,47.2,45.8,30.12,SW,217,2.0,3.0,95,0.00,,,0.00,Wunderground v.1.15,2013-01-12 20:29:00,
2013-01-12 15:35:00,47.3,45.4,30.11,SSW,201,2.0,2.0,93,0.00,,,0.00,Wunderground v.1.15,2013-01-12 20:35:00,
2013-01-12 15:40:00,47.0,44.8,30.11,South,189,3.0,3.0,92,0.00,,,0.00,Wunderground v.1.15,2013-01-12 20:40:00,
2013-01-12 15:45:00,46.6,44.4,30.11,SW,218,5.0,5.0,92,0.00,,,0.00,Wunderground v.1.15,2013-01-12 20:45:00,
2013-01-12 15:51:00,46.2,44.3,30.11,SSW,198,5.0,5.0,93,0.00,,,0.00,Wunderground v.1.15,2013-01-12 20:51:00,
2013-01-12 15:56:00,46.1,44.5,30.12,SSW,198,1.0,4.0,94,0.00,,,0.00,Wunderground v.1.15,2013-01-12 20:56:00,
2013-01-12 16:02:00,46.4,45.0,30.11,South,187,0.0,3.0,95,0.00,,,0.00,Wunderground v.1.15,2013-01-12 21:02:00,
2013-01-12 16:07:00,47.1,45.7,30.10,South,187,0.0,3.0,95,0.00,,,0.00,Wunderground v.1.15,2013-01-12 21:07:00,
2013-01-12 16:13:00,48.5,47.4,30.10,South,188,2.0,2.0,96,0.00,,,0.00,Wunderground v.1.15,2013-01-12 21:13:00,
2013-01-12 16:18:00,50.2,48.5,30.11,SSW,212,3.0,4.0,94,0.00,,,0.00,Wunderground v.1.15,2013-01-12 21:18:00,
2013-01-12 16:24:00,50.6,47.5,30.11,SSW,195,4.0,4.0,89,0.00,,,0.00,Wunderground v.1.15,2013-01-12 21:24:00,
2013-01-12 16:29:00,50.1,46.4,30.11,South,173,2.0,4.0,87,0.00,,,0.00,Wunderground v.1.15,2013-01-12 21:29:00,
2013-01-12 16:35:00,50.1,46.7,30.12,South,190,3.0,3.0,88,0.00,,,0.00,Wunderground v.1.15,2013-01-12 21:35:00,
2013-01-12 16:40:00,49.5,45.5,30.12,SSW,195,3.0,4.0,86,0.00,,,0.00,Wunderground v.1.15,2013-01-12 21:40:00,
2013-01-12 16:46:00,48.3,44.6,30.12,SSW,205,2.0,3.0,87,0.00,,,0.00,Wunderground v.1.15,2013-01-12 21:46:00,
2013-01-12 16:51:00,47.3,44.2,30.13,SSW,203,2.0,3.0,89,0.00,,,0.00,Wunderground v.1.15,2013-01-12 21:51:00,
2013-01-12 16:57:00,46.6,43.8,30.13,South,186,0.0,2.0,90,0.00,,,0.00,Wunderground v.1.15,2013-01-12 21:57:00,
2013-01-12 17:02:00,46.2,43.7,30.14,SSE,165,0.0,1.0,91,0.00,,,0.00,Wunderground v.1.15,2013-01-12 22:02:00,
2013-01-12 17:08:00,45.8,43.6,30.14,SSE,165,0.0,1.0,92,0.00,,,0.00,Wunderground v.1.15,2013-01-12 22:08:00,
2013-01-12 17:13:00,45.6,43.4,30.15,SSE,165,0.0,0.0,92,0.00,,,0.00,Wunderground v.1.15,2013-01-12 22:13:00,
2013-01-12 17:19:00,45.4,43.5,30.14,SSE,159,2.0,2.0,93,0.00,,,0.00,Wunderground v.1.15,2013-01-12 22:19:00,
2013-01-12 17:24:00,45.4,43.5,30.14,SSW,205,1.0,1.0,93,0.00,,,0.00,Wunderground v.1.15,2013-01-12 22:24:00,
2013-01-12 17:30:00,45.3,43.7,30.14,SSE,149,1.0,2.0,94,0.00,,,0.00,Wunderground v.1.15,2013-01-12 22:30:00,
2013-01-12 17:35:00,45.3,43.7,30.14,SSW,193,2.0,2.0,94,0.00,,,0.00,Wunderground v.1.15,2013-01-12 22:35:00,
2013-01-12 17:41:00,45.2,43.6,30.13,SSE,160,0.0,1.0,94,0.00,,,0.00,Wunderground v.1.15,2013-01-12 22:41:00,
2013-01-12 17:46:00,45.1,43.5,30.13,SSE,167,0.0,1.0,94,0.00,,,0.00,Wunderground v.1.15,2013-01-12 22:46:00,
2013-01-12 17:52:00,45.0,43.4,30.13,SSE,156,1.0,1.0,94,0.00,,,0.00,Wunderground v.1.15,2013-01-12 22:52:00,
2013-01-12 17:58:00,45.0,43.4,30.13,SSE,160,2.0,2.0,94,0.00,,,0.00,Wunderground v.1.15,2013-01-12 22:58:00,
2013-01-12 18:03:00,44.9,43.3,30.13,SSW,211,2.0,2.0,94,0.00,,,0.00,Wunderground v.1.15,2013-01-12 23:03:00,
2013-01-12 18:09:00,44.8,43.2,30.13,SSW,208,0.0,2.0,94,0.00,,,0.00,Wunderground v.1.15,2013-01-12 23:09:00,
2013-01-12 18:14:00,44.7,43.4,30.13,SSE,150,0.0,1.0,95,0.00,,,0.00,Wunderground v.1.15,2013-01-12 23:14:00,
2013-01-12 18:20:00,44.7,43.4,30.13,SSE,150,0.0,0.0,95,0.00,,,0.00,Wunderground v.1.15,2013-01-12 23:20:00,
2013-01-12 18:25:00,44.7,43.4,30.14,SSE,149,0.0,0.0,95,0.00,,,0.00,Wunderground v.1.15,2013-01-12 23:25:00,
2013-01-12 18:31:00,44.8,43.5,30.13,SE,131,1.0,1.0,95,0.00,,,0.00,Wunderground v.1.15,2013-01-12 23:31:00,
2013-01-12 18:36:00,44.9,43.6,30.13,SE,131,0.0,1.0,95,0.00,,,0.00,Wunderground v.1.15,2013-01-12 23:36:00,
2013-01-12 18:42:00,45.0,43.7,30.13,SE,131,0.0,0.0,95,0.00,,,0.00,Wunderground v.1.15,2013-01-12 23:42:00,
2013-01-12 18:48:00,45.0,43.7,30.13,SE,131,0.0,1.0,95,0.00,,,0.00,Wunderground v.1.15,2013-01-12 23:48:00,
2013-01-12 18:53:00,44.9,43.6,30.13,ESE,115,0.0,1.0,95,0.00,,,0.00,Wunderground v.1.15,2013-01-12 23:53:00,
2013-01-12 18:59:00,44.8,43.5,30.14,ESE,115,0.0,1.0,95,0.00,,,0.00,Wunderground v.1.15,2013-01-12 23:59:00,
2013-01-12 19:05:00,44.7,43.4,30.14,ESE,114,0.0,0.0,95,0.00,,,0.00,Wunderground v.1.15,2013-01-13 00:05:00,
2013-01-12 19:10:00,44.7,43.4,30.14,ESE,115,0.0,0.0,95,0.00,,,0.00,Wunderground v.1.15,2013-01-13 00:10:00,
2013-01-12 19:16:00,44.9,43.6,30.14,ESE,108,1.0,1.0,95,0.00,,,0.00,Wunderground v.1.15,2013-01-13 00:16:00,
2013-01-12 19:21:00,44.9,43.6,30.14,East,101,2.0,2.0,95,0.00,,,0.00,Wunderground v.1.15,2013-01-13 00:21:00,
2013-01-12 19:27:00,44.9,43.6,30.14,ESE,102,1.0,2.0,95,0.00,,,0.00,Wunderground v.1.15,2013-01-13 00:27:00,
2013-01-12 19:32:00,44.8,43.5,30.14,ESE,102,1.0,1.0,95,0.00,,,0.00,Wunderground v.1.15,2013-01-13 00:32:00,
2013-01-12 19:38:00,44.7,43.4,30.13,East,101,2.0,2.0,95,0.00,,,0.00,Wunderground v.1.15,2013-01-13 00:38:00,
2013-01-12 19:43:00,44.3,43.0,30.13,East,91,2.0,2.0,95,0.00,,,0.00,Wunderground v.1.15,2013-01-13 00:43:00,
2013-01-12 19:49:00,44.3,43.0,30.13,East,91,1.0,2.0,95,0.00,,,0.00,Wunderground v.1.15,2013-01-13 00:49:00,
2013-01-12 19:55:00,44.3,43.0,30.13,ESE,103,1.0,1.0,95,0.00,,,0.00,Wunderground v.1.15,2013-01-13 00:55:00,
2013-01-12 20:00:00,44.2,42.9,30.13,East,97,1.0,1.0,95,0.00,,,0.00,Wunderground v.1.15,2013-01-13 01:00:00,
2013-01-12 20:06:00,44.1,42.8,30.13,East,98,1.0,1.0,95,0.00,,,0.00,Wunderground v.1.15,2013-01-13 01:06:00,
2013-01-12 20:11:00,44.0,42.7,30.13,East,85,1.0,1.0,95,0.00,,,0.00,Wunderground v.1.15,2013-01-13 01:11:00,
2013-01-12 20:17:00,43.9,42.8,30.13,East,85,0.0,1.0,96,0.00,,,0.00,Wunderground v.1.15,2013-01-13 01:17:00,
2013-01-12 20:23:00,43.9,42.8,30.13,East,83,0.0,0.0,96,0.00,,,0.00,Wunderground v.1.15,2013-01-13 01:23:00,
2013-01-12 20:29:00,43.8,42.7,30.13,East,83,0.0,0.0,96,0.00,,,0.00,Wunderground v.1.15,2013-01-13 01:29:00,
2013-01-12 20:34:00,43.7,42.6,30.13,East,84,0.0,0.0,96,0.00,,,0.00,Wunderground v.1.15,2013-01-13 01:34:00,
2013-01-12 20:39:00,43.7,42.6,30.13,East,84,0.0,0.0,96,0.00,,,0.00,Wunderground v.1.15,2013-01-13 01:39:00,
2013-01-12 20:45:00,43.6,42.5,30.13,East,84,0.0,0.0,96,0.00,,,0.00,Wunderground v.1.15,2013-01-13 01:45:00,
2013-01-12 20:50:00,43.3,42.2,30.13,East,83,0.0,0.0,96,0.00,,,0.00,Wunderground v.1.15,2013-01-13 01:50:00,
2013-01-12 20:56:00,43.3,42.2,30.13,ENE,74,0.0,0.0,96,0.00,,,0.00,Wunderground v.1.15,2013-01-13 01:56:00,
2013-01-12 21:02:00,43.2,42.1,30.13,NNE,13,0.0,2.0,96,0.00,,,0.00,Wunderground v.1.15,2013-01-13 02:02:00,
2013-01-12 21:07:00,43.3,42.2,30.13,NNE,12,0.0,2.0,96,0.00,,,0.00,Wunderground v.1.15,2013-01-13 02:07:00,
2013-01-12 21:13:00,43.2,42.1,30.13,NNE,12,0.0,0.0,96,0.00,,,0.00,Wunderground v.1.15,2013-01-13 02:13:00,
2013-01-12 21:18:00,43.1,42.0,30.12,ESE,119,0.0,0.0,96,0.00,,,0.00,Wunderground v.1.15,2013-01-13 02:18:00,
2013-01-12 21:24:00,43.0,41.9,30.12,ESE,103,0.0,0.0,96,0.00,,,0.00,Wunderground v.1.15,2013-01-13 02:24:00,
2013-01-12 21:30:00,43.2,42.4,30.12,ESE,104,0.0,0.0,97,0.00,,,0.00,Wunderground v.1.15,2013-01-13 02:30:00,
2013-01-12 21:35:00,43.2,42.4,30.13,ESE,104,0.0,0.0,97,0.00,,,0.00,Wunderground v.1.15,2013-01-13 02:35:00,
2013-01-12 21:41:00,43.0,41.9,30.12,ESE,105,0.0,0.0,96,0.00,,,0.00,Wunderground v.1.15,2013-01-13 02:41:00,
2013-01-12 21:46:00,42.8,41.7,30.12,ESE,104,0.0,0.0,96,0.00,,,0.00,Wunderground v.1.15,2013-01-13 02:46:00,
2013-01-12 21:51:00,42.6,41.5,30.13,ESE,105,0.0,0.0,96,0.00,,,0.00,Wunderground v.1.15,2013-01-13 02:51:00,
2013-01-12 21:57:00,42.7,41.9,30.13,ESE,104,0.0,0.0,97,0.00,,,0.00,Wunderground v.1.15,2013-01-13 02:57:00,
2013-01-12 22:03:00,42.8,42.0,30.13,NE,51,0.0,0.0,97,0.00,,,0.00,Wunderground v.1.15,2013-01-13 03:03:00,
2013-01-12 22:08:00,43.0,42.2,30.12,East,83,1.0,1.0,97,0.00,,,0.00,Wunderground v.1.15,2013-01-13 03:08:00,
2013-01-12 22:14:00,43.1,42.3,30.12,East,91,1.0,1.0,97,0.00,,,0.00,Wunderground v.1.15,2013-01-13 03:14:00,
2013-01-12 22:19:00,43.1,42.3,30.12,East,91,1.0,2.0,97,0.00,,,0.00,Wunderground v.1.15,2013-01-13 03:19:00,
2013-01-12 22:25:00,43.2,42.4,30.12,East,91,0.0,1.0,97,0.00,,,0.00,Wunderground v.1.15,2013-01-13 03:25:00,
2013-01-12 22:31:00,43.1,42.3,30.12,East,91,0.0,1.0,97,0.00,,,0.00,Wunderground v.1.15,2013-01-13 03:31:00,
2013-01-12 22:36:00,42.8,42.0,30.13,East,91,0.0,0.0,97,0.00,,,0.00,Wunderground v.1.15,2013-01-13 03:36:00,
2013-01-12 22:42:00,42.9,42.1,30.12,East,95,0.0,0.0,97,0.00,,,0.00,Wunderground v.1.15,2013-01-13 03:42:00,
2013-01-12 22:48:00,42.9,42.1,30.12,East,95,0.0,0.0,97,0.00,,,0.00,Wunderground v.1.15,2013-01-13 03:48:00,
2013-01-12 22:53:00,42.9,42.1,30.12,East,94,0.0,0.0,97,0.00,,,0.00,Wunderground v.1.15,2013-01-13 03:53:00,
2013-01-12 22:59:00,42.8,42.0,30.12,SE,131,0.0,0.0,97,0.00,,,0.00,Wunderground v.1.15,2013-01-13 03:59:00,
2013-01-12 23:04:00,42.5,41.7,30.13,South,173,0.0,0.0,97,0.00,,,0.00,Wunderground v.1.15,2013-01-13 04:04:00,
2013-01-12 23:10:00,42.4,41.6,30.13,South,174,0.0,0.0,97,0.00,,,0.00,Wunderground v.1.15,2013-01-13 04:10:00,
2013-01-12 23:15:00,42.4,41.6,30.13,SSE,163,1.0,2.0,97,0.00,,,0.00,Wunderground v.1.15,2013-01-13 04:15:00,
2013-01-12 23:21:00,42.5,41.7,30.12,SE,145,1.0,2.0,97,0.00,,,0.00,Wunderground v.1.15,2013-01-13 04:21:00,
2013-01-12 23:26:00,42.8,42.3,30.12,South,174,1.0,2.0,98,0.00,,,0.00,Wunderground v.1.15,2013-01-13 04:26:00,
2013-01-12 23:31:00,42.9,42.4,30.12,South,186,3.0,3.0,98,0.00,,,0.00,Wunderground v.1.15,2013-01-13 04:31:00,
2013-01-12 23:37:00,42.9,42.1,30.12,SSW,198,0.0,2.0,97,0.00,,,0.00,Wunderground v.1.15,2013-01-13 04:37:00,
2013-01-12 23:43:00,42.8,42.0,30.12,SE,124,0.0,2.0,97,0.00,,,0.00,Wunderground v.1.15,2013-01-13 04:43:00,
2013-01-12 23:48:00,42.8,42.0,30.12,South,171,0.0,1.0,97,0.00,,,0.00,Wunderground v.1.15,2013-01-13 04:48:00,
2013-01-12 23:54:00,42.7,41.9,30.12,South,169,1.0,1.0,97,0.00,,,0.00,Wunderground v.1.15,2013-01-13 04:54:00,
2013-01-12 23:59:00,42.7,42.2,30.12,SSE,150,1.0,2.0,98,0.00,,,0.00,Wunderground v.1.15,2013-01-13 04:59:00,